This is the latest recevied weather packets stored in our database for station/object IU2BEE-13. If no packets are shown the sender has not sent any weather packets the latest 10 day(s).
| Time | Temp. | Humidity | Pressure | Rain* | Wind** | Luminosity | Snow |
|---|---|---|---|---|---|---|---|
| 1787490303 | 28.33° C | 35% | 1025.9 hPa | 0 mm | - | - | - |
| 1787490003 | 28.33° C | 36% | 1025.9 hPa | 0 mm | - | - | - |
| 1787489703 | 28.33° C | 34% | 1026 hPa | 0 mm | - | - | - |
| 1787489403 | 27.78° C | 36% | 1025.9 hPa | 0 mm | - | - | - |
| 1787489103 | 26.11° C | 41% | 1025.9 hPa | 0 mm | - | - | - |
| 1787488803 | 26.11° C | 40% | 1026 hPa | 0 mm | - | - | - |
| 1787488503 | 26.67° C | 41% | 1025.9 hPa | 0 mm | - | - | - |
| 1787488203 | 27.22° C | 40% | 1025.9 hPa | 0 mm | - | - | - |
| 1787487903 | 27.22° C | 40% | 1026.1 hPa | 0 mm | - | - | - |
| 1787487603 | 27.22° C | 41% | 1026.1 hPa | 0 mm | - | - | - |
| 1787487303 | 26.67° C | 41% | 1026.1 hPa | 0 mm | - | - | - |
| 1787487003 | 26.67° C | 41% | 1026 hPa | 0 mm | - | - | - |
| 1787486703 | 26.11° C | 41% | 1026 hPa | 0 mm | - | - | - |
| 1787486403 | 26.11° C | 41% | 1026.1 hPa | 0 mm | - | - | - |
| 1787486103 | 26.11° C | 41% | 1026.2 hPa | 0 mm | - | - | - |
| 1787485803 | 26.11° C | 41% | 1026.2 hPa | 0 mm | - | - | - |
| 1787485503 | 26.11° C | 41% | 1026.2 hPa | 0 mm | - | - | - |
| 1787485203 | 25° C | 42% | 1026.1 hPa | 0 mm | - | - | - |
| 1787484903 | 25° C | 42% | 1026.2 hPa | 0 mm | - | - | - |
| 1787484603 | 25° C | 41% | 1026.2 hPa | 0 mm | - | - | - |
| 1787484303 | 25° C | 42% | 1026.2 hPa | 0 mm | - | - | - |
| 1787484003 | 25° C | 43% | 1026.1 hPa | 0 mm | - | - | - |
| 1787483703 | 25° C | 42% | 1026.2 hPa | 0 mm | - | - | - |
| 1787483403 | 24.44° C | 43% | 1026.3 hPa | 0 mm | - | - | - |
| 1787483103 | 23.89° C | 44% | 1026.3 hPa | 0 mm | - | - | - |
* Rain latest hour (hover to see other rain measurements)
** Current wind speed in m/s (hover to see current wind gust speed)